Missoula, MT

12:04 PM MDT on October 31, 2014 (GMT -0600)
Franklin to the Fort | Change Station
CLOSE
Current Station
Personal Weather Station
Location: Missoula, MT
Elevation: 3200 ft
Nearby Weather Stations

Elev 3200 ft 46.86 °N, 114.02 °W | Updated 4 seconds ago

Partly Cloudy
Partly Cloudy
49.0 °F
Feels Like 49 °F
N
2.0
Wind Variable Wind from South
Gusts 6.0 mph

Today
High -- | Low -- °F
--% Chance of Precip.
Yesterday
High -- | Low -- °F
Precip. -- in
8:17 AM 6:21 PM
First Quarter, 57% visible
Pressure 29.86 in
Visibility 10.0 miles
Clouds Clear
Windchill 49 °F
Dew Point 43 °F
Humidity 81%
Rainfall 0.00 in
Snow Depth Not available.
UV 2 out of 12
Pollen 1.10 out of 12
Air Quality Not available.
Flu Activity Not available.
METAR KMSO 311753Z 00000KT 10SM CLR 06/05 A2982 RMK AO2 SLP111 T00610050 10061 20000 58009

More Conditions Fewer Conditions

Pressure 29.86 in
Visibility 10.0 miles
Clouds Clear
Windchill 49 °F
Dew Point 43 °F
Humidity 81%
Rainfall 0.00 in
Snow Depth Not available.
UV 2 out of 12
Pollen 1.10 out of 12
Air Quality Not available.
Flu Activity Not available.
METAR KMSO 311753Z 00000KT 10SM CLR 06/05 A2982 RMK AO2 SLP111 T00610050 10061 20000 58009

More Conditions Fewer Conditions

10-Day Weather Forecast

Almanac

Astronomy

Oct. 31, 2014 Rise Set
Actual Time
Civil Twilight
Nautical Twilight
Astronomical Twilight
Moon
Length of Visible Light
Length of Day
Tomorrow will be .
, % of the Moon is Illuminated

Today's Extremes

State Highs State Lows

Community

WunderPhotos

Upload Photos

1,766,679 photos uploaded!

WunderBlogs® & News

Nearby

Air Quality

  Air Quality AQ Index Pollutant
Not available.

Snow Depth

Station Depth Elevation

Earthquake Activity

City Distance Mag. Time & Date
Minimum magnitude displayed is 2.5.

Coastal Water Temperatures

Place Temperature

Nearby Weather Stations